Time;durP1;ratioP1;P1;durP2;ratioP2;P2;SDS_P1;SDS_P2;PMS_P1;PMS_P2;Temp;Humidity;BMP_temperature;BMP_pressure;BME280_temperature;BME280_humidity;BME280_pressure;Samples;Min_cycle;Max_cycle;Signal;HPM_P1;HPM_P2
2023/04/07 00:01:02;;;;;;;4.38;2.20;;;;;15.30;101271.00;;;;5009821;28;20221;-79
2023/04/07 00:03:32;;;;;;;2.97;1.83;;;;;15.30;101277.00;;;;5008622;28;20189;-80
2023/04/07 00:05:59;;;;;;;3.45;1.95;;;;;15.30;101279.00;;;;5009994;28;20243;-80
2023/04/07 00:08:27;;;;;;;4.05;1.98;;;;;15.30;101279.00;;;;4998823;28;20225;-80
2023/04/07 00:10:54;;;;;;;4.38;2.20;;;;;15.30;101287.00;;;;5006969;28;20690;-80
2023/04/07 00:13:21;;;;;;;3.88;2.30;;;;;15.30;101280.00;;;;5011055;28;20193;-80
2023/04/07 00:15:49;;;;;;;5.40;2.15;;;;;15.30;101283.00;;;;5006998;28;20197;-80
2023/04/07 00:18:16;;;;;;;2.42;2.03;;;;;15.20;101285.00;;;;5010718;28;20231;-80
2023/04/07 00:20:45;;;;;;;6.78;2.13;;;;;15.20;101281.00;;;;5007835;28;20652;-80
2023/04/07 00:23:12;;;;;;;3.88;1.95;;;;;15.20;101278.00;;;;4997666;28;20440;-80
2023/04/07 00:25:39;;;;;;;5.38;2.30;;;;;15.20;101283.00;;;;4997046;28;20205;-80
2023/04/07 00:28:06;;;;;;;4.57;1.98;;;;;15.20;101293.00;;;;5008621;28;20675;-80
2023/04/07 00:30:34;;;;;;;2.92;1.85;;;;;15.20;101286.00;;;;5010068;28;20213;-80
2023/04/07 00:33:01;;;;;;;3.70;2.08;;;;;15.30;101290.00;;;;5008963;28;20243;-80
2023/04/07 00:35:28;;;;;;;2.97;1.98;;;;;15.30;101286.00;;;;5010176;28;20642;-80
2023/04/07 00:37:58;;;;;;;3.00;1.60;;;;;15.20;101290.00;;;;5008987;28;20228;-80
2023/04/07 00:40:25;;;;;;;2.28;1.80;;;;;15.20;101288.00;;;;5009591;28;20218;-80
2023/04/07 00:42:53;;;;;;;4.78;1.60;;;;;15.20;101288.00;;;;4997738;28;20202;-80
2023/04/07 00:45:20;;;;;;;4.07;1.60;;;;;15.20;101293.00;;;;5009054;28;20670;-80
2023/04/07 00:47:47;;;;;;;3.85;2.08;;;;;15.20;101281.00;;;;5009607;28;20203;-80
2023/04/07 00:50:15;;;;;;;3.83;1.95;;;;;15.20;101289.00;;;;5010513;28;20212;-80
2023/04/07 00:52:42;;;;;;;4.20;1.85;;;;;15.10;101287.00;;;;5009177;28;20575;-80
2023/04/07 00:55:11;;;;;;;3.50;1.92;;;;;15.10;101288.00;;;;5009785;28;20212;-80
2023/04/07 00:57:39;;;;;;;4.22;2.05;;;;;15.10;101283.00;;;;5009338;28;20223;-80
2023/04/07 01:00:08;;;;;;;4.32;1.70;;;;;15.10;101294.00;;;;5007844;28;20670;-80
2023/04/07 01:02:41;;;;;;;4.55;1.65;;;;;15.10;101292.00;;;;5005428;28;20619;-80
2023/04/07 01:05:15;;;;;;;2.47;1.70;;;;;15.10;101286.00;;;;5010329;28;20554;-80
2023/04/07 01:07:52;;;;;;;3.95;1.88;;;;;15.00;101291.00;;;;5008993;28;20271;-79
2023/04/07 01:10:27;;;;;;;2.58;1.48;;;;;15.00;101285.00;;;;5008028;28;20617;-80
2023/04/07 01:13:02;;;;;;;2.22;1.73;;;;;15.00;101289.00;;;;5008670;28;20192;-80
2023/04/07 01:15:33;;;;;;;2.00;1.80;;;;;15.00;101287.00;;;;5008308;28;20288;-80
2023/04/07 01:18:07;;;;;;;2.17;1.70;;;;;15.00;101290.00;;;;5006557;28;20236;-79
2023/04/07 01:20:36;;;;;;;3.30;1.95;;;;;15.00;101291.00;;;;5009156;28;21071;-80
2023/04/07 01:23:07;;;;;;;3.38;2.05;;;;;15.00;101292.00;;;;5007265;28;20227;-80
2023/04/07 01:26:03;;;;;;;3.33;2.03;;;;;14.90;101293.00;;;;5009462;28;20253;-80
2023/04/07 01:29:07;;;;;;;4.78;1.83;;;;;14.90;101287.00;;;;5000039;28;20201;-80
2023/04/07 01:31:39;;;;;;;3.25;1.75;;;;;14.90;101282.00;;;;5009566;28;20204;-80
2023/04/07 01:34:09;;;;;;;4.55;1.92;;;;;14.90;101288.00;;;;5001337;28;20197;-80
2023/04/07 01:36:36;;;;;;;5.63;2.20;;;;;14.90;101290.00;;;;5005772;28;20208;-80
2023/04/07 01:39:04;;;;;;;4.80;2.20;;;;;14.90;101295.00;;;;5006668;28;20655;-80
2023/04/07 01:41:33;;;;;;;2.58;2.10;;;;;14.90;101287.00;;;;5008310;28;20288;-80
2023/04/07 01:44:01;;;;;;;4.43;2.28;;;;;14.80;101289.00;;;;5004349;28;20982;-80
2023/04/07 01:46:29;;;;;;;3.63;2.40;;;;;14.90;101286.00;;;;5005071;28;20556;-80
2023/04/07 01:48:58;;;;;;;5.20;2.47;;;;;14.80;101285.00;;;;5008123;28;20558;-80
2023/04/07 01:51:27;;;;;;;5.10;2.70;;;;;14.80;101293.00;;;;4990952;28;20622;-80
2023/04/07 01:53:54;;;;;;;7.10;2.80;;;;;14.80;101285.00;;;;5010243;28;20588;-80
2023/04/07 01:56:22;;;;;;;3.30;2.42;;;;;14.80;101289.00;;;;5006588;28;20204;-80
2023/04/07 01:58:49;;;;;;;3.72;2.85;;;;;14.80;101293.00;;;;5007855;28;20217;-80
2023/04/07 02:01:17;;;;;;;7.75;3.08;;;;;14.80;101284.00;;;;5007421;28;20310;-80
2023/04/07 02:03:50;;;;;;;4.32;2.38;;;;;14.80;101283.00;;;;5006828;28;20221;-80
2023/04/07 02:06:22;;;;;;;5.47;2.55;;;;;14.80;101282.00;;;;5007593;28;20197;-80
2023/04/07 02:08:53;;;;;;;3.17;2.45;;;;;14.80;101275.00;;;;5008103;28;20217;-80
2023/04/07 02:11:21;;;;;;;4.05;2.88;;;;;14.80;101279.00;;;;5007138;28;20197;-80
2023/04/07 02:13:52;;;;;;;4.32;2.90;;;;;14.80;101287.00;;;;5008025;28;20205;-80
2023/04/07 02:16:20;;;;;;;4.15;3.08;;;;;14.80;101289.00;;;;5007923;28;20200;-80
2023/04/07 02:18:48;;;;;;;5.32;3.05;;;;;14.80;101285.00;;;;5006776;28;20585;-81
2023/04/07 02:21:18;;;;;;;4.00;2.88;;;;;14.80;101284.00;;;;5006188;28;20204;-80
2023/04/07 02:23:46;;;;;;;6.43;3.30;;;;;14.80;101279.00;;;;5001499;28;21241;-80
2023/04/07 02:26:13;;;;;;;8.52;3.05;;;;;14.80;101288.00;;;;5007767;28;20938;-80
2023/04/07 02:28:41;;;;;;;5.10;2.65;;;;;14.80;101286.00;;;;5007688;28;20212;-80
2023/04/07 02:31:08;;;;;;;5.90;2.85;;;;;14.80;101292.00;;;;5006441;28;20197;-80
2023/04/07 02:33:35;;;;;;;6.57;2.97;;;;;14.80;101287.00;;;;5007666;28;20212;-80
2023/04/07 02:36:03;;;;;;;4.50;2.97;;;;;14.80;101290.00;;;;5005653;28;20733;-80
2023/04/07 02:38:32;;;;;;;6.95;3.20;;;;;14.80;101294.00;;;;5006560;28;20224;-81
2023/04/07 02:40:59;;;;;;;4.22;2.78;;;;;14.80;101305.00;;;;5001851;28;20667;-80
2023/04/07 02:43:26;;;;;;;6.38;3.08;;;;;14.80;101288.00;;;;5005895;28;20205;-80
2023/04/07 02:45:54;;;;;;;6.75;3.25;;;;;14.80;101294.00;;;;5004459;28;20200;-80
2023/04/07 02:48:21;;;;;;;6.75;3.00;;;;;14.80;101294.00;;;;5005269;28;20200;-80
2023/04/07 02:50:48;;;;;;;2.92;2.63;;;;;14.80;101296.00;;;;5006438;28;20197;-80
2023/04/07 02:53:16;;;;;;;6.88;3.22;;;;;14.80;101297.00;;;;5007296;28;20201;-80
2023/04/07 02:55:44;;;;;;;4.20;2.55;;;;;14.80;101299.00;;;;5007483;28;20212;-80
2023/04/07 02:58:11;;;;;;;4.13;2.63;;;;;14.90;101297.00;;;;4997245;28;20228;-80
2023/04/07 03:00:40;;;;;;;4.20;2.65;;;;;14.90;101301.00;;;;5001659;28;20236;-80
2023/04/07 03:03:07;;;;;;;4.35;2.45;;;;;14.90;101300.00;;;;5007346;28;20208;-80
2023/04/07 03:05:34;;;;;;;5.43;2.63;;;;;14.90;101297.00;;;;5007077;28;20197;-81
2023/04/07 03:08:02;;;;;;;4.32;2.53;;;;;14.90;101301.00;;;;5007291;28;20213;-80
2023/04/07 03:10:29;;;;;;;5.70;2.42;;;;;14.90;101301.00;;;;5007370;28;20210;-80
2023/04/07 03:12:58;;;;;;;4.90;2.45;;;;;14.90;101296.00;;;;5006744;28;20201;-80
2023/04/07 03:15:26;;;;;;;6.53;2.25;;;;;15.00;101301.00;;;;5004166;28;20202;-80
2023/04/07 03:17:53;;;;;;;6.43;2.83;;;;;15.00;101301.00;;;;5006200;28;20228;-80
2023/04/07 03:20:21;;;;;;;5.53;2.42;;;;;15.00;101303.00;;;;5007767;28;20193;-80
2023/04/07 03:22:48;;;;;;;3.35;2.22;;;;;15.00;101302.00;;;;5007296;28;20204;-80
2023/04/07 03:25:15;;;;;;;3.75;2.40;;;;;15.00;101299.00;;;;5006839;28;20205;-80
2023/04/07 03:27:42;;;;;;;4.05;1.98;;;;;15.00;101291.00;;;;5006265;28;20259;-80
2023/04/07 03:30:12;;;;;;;4.10;2.50;;;;;15.00;101301.00;;;;5007419;28;20204;-81
2023/04/07 03:32:39;;;;;;;4.97;1.80;;;;;15.00;101301.00;;;;5006067;28;20200;-80
2023/04/07 03:35:07;;;;;;;3.78;2.22;;;;;15.00;101306.00;;;;5008244;28;20220;-80
2023/04/07 03:37:35;;;;;;;5.55;2.80;;;;;15.00;101304.00;;;;5002347;28;20221;-81
2023/04/07 03:40:02;;;;;;;9.50;2.30;;;;;15.00;101301.00;;;;5004459;28;20666;-81
2023/04/07 03:42:31;;;;;;;6.20;3.03;;;;;15.00;101308.00;;;;5007380;28;20255;-80
2023/04/07 03:44:58;;;;;;;7.05;2.05;;;;;15.00;101302.00;;;;5006746;28;20216;-80
2023/04/07 03:47:26;;;;;;;5.05;2.15;;;;;15.00;101303.00;;;;5004622;28;20196;-80
2023/04/07 03:49:54;;;;;;;3.33;2.20;;;;;15.00;101312.00;;;;5002327;28;20578;-80
2023/04/07 03:52:21;;;;;;;4.78;1.90;;;;;15.00;101316.00;;;;5007205;28;20212;-80
2023/04/07 03:54:48;;;;;;;3.53;2.13;;;;;15.00;101309.00;;;;5005361;28;20203;-80
2023/04/07 03:57:16;;;;;;;6.50;2.15;;;;;15.00;101315.00;;;;5008524;28;20200;-80
2023/04/07 03:59:43;;;;;;;5.15;2.20;;;;;15.10;101317.00;;;;5010301;28;20290;-80
2023/04/07 04:02:11;;;;;;;6.13;2.17;;;;;15.10;101317.00;;;;5007177;28;20201;-80
2023/04/07 04:04:40;;;;;;;4.38;2.13;;;;;15.10;101317.00;;;;5009978;28;21054;-80
2023/04/07 04:07:07;;;;;;;5.68;2.40;;;;;15.10;101310.00;;;;5004753;28;20604;-80
2023/04/07 04:09:34;;;;;;;4.47;1.73;;;;;15.10;101310.00;;;;5010734;28;20208;-80
2023/04/07 04:12:02;;;;;;;3.88;2.10;;;;;15.10;101313.00;;;;5008302;28;20197;-80
2023/04/07 04:14:29;;;;;;;4.57;2.00;;;;;15.10;101306.00;;;;5007909;28;20197;-80
2023/04/07 04:16:56;;;;;;;4.60;2.45;;;;;15.10;101314.00;;;;5008563;28;20197;-80
2023/04/07 04:19:24;;;;;;;8.10;2.25;;;;;15.10;101307.00;;;;5009761;28;20228;-80
2023/04/07 04:21:53;;;;;;;4.82;2.13;;;;;15.00;101314.00;;;;5010384;28;20197;-80
2023/04/07 04:24:20;;;;;;;6.28;2.40;;;;;15.00;101314.00;;;;5006344;28;20576;-80
2023/04/07 04:26:48;;;;;;;6.03;1.85;;;;;15.10;101313.00;;;;5009010;28;20197;-80
2023/04/07 04:29:16;;;;;;;4.80;2.00;;;;;15.00;101308.00;;;;5002715;28;20193;-80
2023/04/07 04:31:44;;;;;;;5.80;2.42;;;;;15.00;101314.00;;;;5008099;28;20213;-80
2023/04/07 04:34:11;;;;;;;5.15;2.38;;;;;15.00;101315.00;;;;5009078;28;20212;-80
2023/04/07 04:36:40;;;;;;;8.93;2.45;;;;;15.00;101316.00;;;;5007358;28;20209;-80
2023/04/07 04:39:09;;;;;;;5.15;2.08;;;;;15.00;101327.00;;;;5007783;28;20441;-80
2023/04/07 04:41:36;;;;;;;4.15;2.20;;;;;15.00;101330.00;;;;5003547;28;20212;-81
2023/04/07 04:44:04;;;;;;;4.93;2.58;;;;;15.00;101330.00;;;;5006473;28;20197;-81
2023/04/07 04:46:31;;;;;;;7.38;2.47;;;;;15.00;101334.00;;;;5000883;28;20201;-81
2023/04/07 04:48:58;;;;;;;5.00;2.42;;;;;15.00;101331.00;;;;5005654;28;20219;-80
2023/04/07 04:51:26;;;;;;;7.30;3.30;;;;;15.00;101333.00;;;;5004082;28;20197;-80
2023/04/07 04:53:53;;;;;;;5.93;3.28;;;;;15.00;101341.00;;;;5008392;28;20328;-80
2023/04/07 04:56:22;;;;;;;4.95;3.25;;;;;15.00;101346.00;;;;5009589;28;20660;-80
2023/04/07 04:58:50;;;;;;;9.15;3.88;;;;;15.00;101342.00;;;;5005963;28;20306;-80
2023/04/07 05:01:18;;;;;;;5.15;3.20;;;;;15.00;101349.00;;;;5007120;28;20279;-80
2023/04/07 05:03:45;;;;;;;6.18;4.03;;;;;15.00;101361.00;;;;5009769;28;20197;-80
2023/04/07 05:06:13;;;;;;;6.95;3.20;;;;;14.90;101360.00;;;;5009600;28;20204;-80
2023/04/07 05:08:40;;;;;;;7.63;4.15;;;;;14.90;101351.00;;;;5009616;28;20217;-79
2023/04/07 05:11:08;;;;;;;6.45;3.10;;;;;14.90;101355.00;;;;5008954;28;20205;-81
2023/04/07 05:13:37;;;;;;;5.10;3.40;;;;;14.90;101359.00;;;;5006762;28;20197;-81
2023/04/07 05:16:05;;;;;;;7.43;3.65;;;;;14.90;101356.00;;;;5007433;28;20205;-81
2023/04/07 05:18:32;;;;;;;5.53;3.10;;;;;14.90;101356.00;;;;5005621;28;20769;-81
2023/04/07 05:21:01;;;;;;;5.47;3.55;;;;;14.90;101350.00;;;;5006833;28;20216;-81
2023/04/07 05:23:29;;;;;;;6.28;3.53;;;;;14.90;101357.00;;;;5008503;28;20201;-82
2023/04/07 05:25:59;;;;;;;6.28;3.63;;;;;14.90;101349.00;;;;5009982;28;20209;-82
2023/04/07 05:28:26;;;;;;;5.90;3.00;;;;;14.90;101363.00;;;;5010215;28;20215;-82
2023/04/07 05:30:55;;;;;;;4.93;3.25;;;;;14.90;101360.00;;;;5005564;28;20204;-81
2023/04/07 05:33:22;;;;;;;4.28;2.65;;;;;14.90;101362.00;;;;5009734;28;20197;-80
2023/04/07 05:35:52;;;;;;;6.15;3.58;;;;;14.90;101368.00;;;;5008577;28;20197;-80
2023/04/07 05:38:20;;;;;;;5.40;2.75;;;;;15.00;101358.00;;;;5008511;28;20225;-81
2023/04/07 05:40:49;;;;;;;8.15;3.20;;;;;14.90;101368.00;;;;5006288;28;20205;-81
2023/04/07 05:43:16;;;;;;;5.50;3.42;;;;;15.00;101373.00;;;;5008073;28;20204;-81
2023/04/07 05:45:44;;;;;;;6.22;3.50;;;;;15.00;101374.00;;;;5005574;28;20225;-81
2023/04/07 05:48:13;;;;;;;7.00;3.20;;;;;15.00;101370.00;;;;5003006;28;20216;-81
2023/04/07 05:50:40;;;;;;;4.50;3.42;;;;;15.00;101371.00;;;;5007781;28;20205;-81
2023/04/07 05:53:07;;;;;;;4.07;2.95;;;;;15.00;101374.00;;;;5004973;28;20205;-80
2023/04/07 05:55:37;;;;;;;9.60;3.55;;;;;15.00;101380.00;;;;5001270;28;20211;-81
2023/04/07 05:58:05;;;;;;;4.53;3.42;;;;;15.00;101377.00;;;;5004435;28;20573;-81
2023/04/07 06:00:35;;;;;;;4.82;3.45;;;;;15.00;101376.00;;;;5006152;28;20243;-81
2023/04/07 06:03:04;;;;;;;6.35;4.00;;;;;15.00;101372.00;;;;5008297;28;20778;-81
2023/04/07 06:05:33;;;;;;;4.38;2.92;;;;;15.00;101376.00;;;;5008729;28;20201;-82
2023/04/07 06:08:00;;;;;;;8.30;3.47;;;;;15.10;101390.00;;;;5007833;28;20248;-83
2023/04/07 06:10:31;;;;;;;5.78;3.78;;;;;15.10;101385.00;;;;5006858;28;20205;-81
2023/04/07 06:12:58;;;;;;;6.18;3.08;;;;;15.10;101382.00;;;;5003544;28;20363;-79
2023/04/07 06:15:30;;;;;;;4.68;3.60;;;;;15.00;101385.00;;;;5007331;28;20212;-81
2023/04/07 06:17:58;;;;;;;6.40;3.50;;;;;15.10;101385.00;;;;5004008;28;20203;-80
2023/04/07 06:20:26;;;;;;;5.72;3.33;;;;;15.00;101390.00;;;;5004008;28;20650;-81
2023/04/07 06:22:55;;;;;;;6.43;3.90;;;;;15.00;101396.00;;;;5005250;28;20659;-80
2023/04/07 06:25:22;;;;;;;8.15;3.53;;;;;15.10;101398.00;;;;5005335;28;20197;-80
2023/04/07 06:27:50;;;;;;;6.25;4.38;;;;;15.10;101403.00;;;;5005514;28;20639;-80
2023/04/07 06:30:18;;;;;;;4.35;3.50;;;;;15.00;101404.00;;;;5006036;28;20251;-80
2023/04/07 06:32:45;;;;;;;7.35;4.00;;;;;15.10;101402.00;;;;5006375;28;20205;-80
2023/04/07 06:35:13;;;;;;;9.60;4.15;;;;;15.10;101397.00;;;;5008189;28;20255;-80
2023/04/07 06:37:40;;;;;;;7.30;3.75;;;;;15.10;101399.00;;;;5008890;28;20197;-81
2023/04/07 06:40:10;;;;;;;6.30;3.78;;;;;15.10;101403.00;;;;5005774;28;20220;-79
2023/04/07 06:42:37;;;;;;;6.20;4.35;;;;;15.10;101407.00;;;;5007702;28;20331;-79
2023/04/07 06:45:05;;;;;;;5.72;3.92;;;;;15.10;101410.00;;;;5007646;28;20205;-80
2023/04/07 06:47:32;;;;;;;5.63;3.95;;;;;15.10;101411.00;;;;5009007;28;20212;-78
2023/04/07 06:50:00;;;;;;;5.65;3.83;;;;;15.20;101413.00;;;;5006774;28;20213;-79
2023/04/07 06:52:27;;;;;;;5.45;3.25;;;;;15.20;101419.00;;;;5007132;28;20209;-79
2023/04/07 06:54:54;;;;;;;6.53;3.75;;;;;15.20;101414.00;;;;5005536;28;20212;-78
2023/04/07 06:57:23;;;;;;;5.35;3.80;;;;;15.20;101420.00;;;;5007020;28;20585;-78
2023/04/07 06:59:50;;;;;;;8.93;4.32;;;;;15.20;101425.00;;;;4994611;28;20233;-79
2023/04/07 07:02:18;;;;;;;5.28;3.53;;;;;15.30;101423.00;;;;5005967;28;20189;-79
2023/04/07 07:04:45;;;;;;;7.00;3.22;;;;;15.30;101431.00;;;;5002758;28;20196;-79
2023/04/07 07:07:12;;;;;;;4.25;2.80;;;;;15.30;101428.00;;;;5004785;28;20201;-82
2023/04/07 07:09:40;;;;;;;7.57;3.15;;;;;15.30;101432.00;;;;4995825;28;20224;-79
2023/04/07 07:12:07;;;;;;;5.13;2.88;;;;;15.30;101431.00;;;;5003155;28;20693;-80
2023/04/07 07:14:37;;;;;;;4.32;2.83;;;;;15.30;101434.00;;;;5000709;28;20204;-80
2023/04/07 07:17:04;;;;;;;5.47;2.67;;;;;15.30;101442.00;;;;5003628;28;20543;-80
2023/04/07 07:19:32;;;;;;;5.50;2.80;;;;;15.30;101442.00;;;;5005058;28;20724;-80
2023/04/07 07:21:59;;;;;;;5.85;2.33;;;;;15.30;101444.00;;;;5004815;28;20204;-80
2023/04/07 07:24:28;;;;;;;3.53;2.03;;;;;15.30;101451.00;;;;5004449;28;20193;-80
2023/04/07 07:26:55;;;;;;;6.57;2.65;;;;;15.40;101452.00;;;;5007491;28;20300;-80
2023/04/07 07:29:23;;;;;;;4.43;2.33;;;;;15.40;101453.00;;;;5004617;28;20209;-80
2023/04/07 07:31:51;;;;;;;3.17;1.65;;;;;15.40;101452.00;;;;5007921;28;20669;-80
2023/04/07 07:34:18;;;;;;;5.50;2.03;;;;;15.50;101456.00;;;;5011916;28;20201;-78
2023/04/07 07:36:46;;;;;;;6.90;1.85;;;;;15.50;101460.00;;;;5011097;28;20284;-77
2023/04/07 07:39:14;;;;;;;5.35;2.50;;;;;15.50;101461.00;;;;5008539;28;20228;-77
2023/04/07 07:41:41;;;;;;;5.93;2.47;;;;;15.50;101466.00;;;;5008361;28;20225;-77
2023/04/07 07:44:10;;;;;;;5.38;2.10;;;;;15.50;101460.00;;;;5007543;28;20734;-78
2023/04/07 07:46:38;;;;;;;7.40;1.98;;;;;15.50;101462.00;;;;5007324;28;20249;-81
2023/04/07 07:49:08;;;;;;;5.85;1.75;;;;;15.50;101464.00;;;;5007686;28;20201;-79
2023/04/07 07:51:36;;;;;;;3.45;2.00;;;;;15.50;101467.00;;;;5009589;28;20672;-79
2023/04/07 07:54:04;;;;;;;7.78;2.42;;;;;15.50;101469.00;;;;5008442;28;21059;-79
2023/04/07 07:56:32;;;;;;;5.70;1.92;;;;;15.50;101473.00;;;;5012719;28;20193;-79
2023/04/07 07:58:59;;;;;;;6.85;2.47;;;;;15.50;101470.00;;;;5006208;28;20210;-80
2023/04/07 08:01:27;;;;;;;4.32;1.75;;;;;15.60;101471.00;;;;5005678;28;20236;-80
2023/04/07 08:03:54;;;;;;;3.60;1.60;;;;;15.60;101470.00;;;;5004634;28;20802;-79
2023/04/07 08:06:23;;;;;;;4.95;1.48;;;;;15.60;101476.00;;;;5008904;28;20659;-79
2023/04/07 08:08:51;;;;;;;6.30;1.73;;;;;15.70;101485.00;;;;5008877;28;20729;-79
2023/04/07 08:11:20;;;;;;;4.25;1.63;;;;;15.70;101486.00;;;;5005032;28;20228;-78
2023/04/07 08:13:47;;;;;;;4.75;2.20;;;;;15.70;101491.00;;;;5008081;28;20551;-78
2023/04/07 08:16:14;;;;;;;4.18;1.73;;;;;15.80;101487.00;;;;5006749;28;20582;-79
2023/04/07 08:18:42;;;;;;;4.55;1.65;;;;;15.80;101494.00;;;;5009459;28;20197;-79
2023/04/07 08:21:09;;;;;;;4.38;1.27;;;;;15.80;101493.00;;;;5002599;28;20201;-78
2023/04/07 08:23:38;;;;;;;5.28;1.77;;;;;15.80;101494.00;;;;5006309;28;20201;-79
2023/04/07 08:26:05;;;;;;;3.95;2.22;;;;;15.80;101495.00;;;;5007725;28;20208;-79
2023/04/07 08:28:32;;;;;;;6.00;2.05;;;;;15.90;101497.00;;;;5007461;28;20200;-81
2023/04/07 08:31:00;;;;;;;5.53;2.10;;;;;15.90;101494.00;;;;5006318;28;20212;-79
2023/04/07 08:33:27;;;;;;;4.43;2.47;;;;;15.90;101500.00;;;;5001812;28;20201;-78
2023/04/07 08:35:54;;;;;;;6.15;2.58;;;;;15.90;101497.00;;;;5005042;28;20197;-79
2023/04/07 08:38:21;;;;;;;9.55;3.08;;;;;15.90;101497.00;;;;5005271;28;20577;-79
2023/04/07 08:40:57;;;;;;;7.55;2.90;;;;;15.80;101502.00;;;;5007167;28;20702;-79
2023/04/07 08:43:26;;;;;;;4.53;2.03;;;;;15.90;101503.00;;;;5006822;28;20196;-80
2023/04/07 08:45:56;;;;;;;6.90;2.40;;;;;15.90;101509.00;;;;4998563;28;20205;-79
2023/04/07 08:48:26;;;;;;;8.02;2.70;;;;;16.00;101512.00;;;;5002098;28;20193;-78
2023/04/07 08:50:53;;;;;;;5.35;2.20;;;;;16.00;101524.00;;;;5008490;28;20733;-78
2023/04/07 08:53:28;;;;;;;4.38;2.13;;;;;15.90;101516.00;;;;5008845;28;20216;-79
2023/04/07 08:55:57;;;;;;;4.50;2.20;;;;;16.00;101514.00;;;;5004216;28;20201;-78
2023/04/07 08:58:25;;;;;;;4.20;2.25;;;;;15.90;101515.00;;;;5007751;28;20197;-80
2023/04/07 09:00:53;;;;;;;4.60;1.77;;;;;15.90;101524.00;;;;5004785;28;20575;-80
2023/04/07 09:03:20;;;;;;;4.95;1.98;;;;;15.90;101523.00;;;;5006724;28;20212;-81
2023/04/07 09:05:50;;;;;;;3.35;1.70;;;;;15.90;101525.00;;;;5006241;28;20205;-80
2023/04/07 09:08:17;;;;;;;6.50;2.03;;;;;16.00;101527.00;;;;5004885;28;20649;-79
2023/04/07 09:10:45;;;;;;;5.43;1.58;;;;;16.00;101532.00;;;;5003793;28;20203;-79
2023/04/07 09:13:14;;;;;;;4.95;2.08;;;;;16.00;101539.00;;;;5002757;28;20205;-80
2023/04/07 09:15:42;;;;;;;2.35;1.30;;;;;16.00;101530.00;;;;5005776;28;20236;-80
2023/04/07 09:18:09;;;;;;;5.60;1.67;;;;;16.00;101535.00;;;;5007074;28;20204;-78
2023/04/07 09:20:56;;;;;;;3.28;1.30;;;;;15.90;101534.00;;;;5006015;28;20569;-79
2023/04/07 09:23:29;;;;;;;5.20;1.48;;;;;16.00;101532.00;;;;5007280;28;20271;-79
2023/04/07 09:25:58;;;;;;;5.20;1.38;;;;;16.10;101544.00;;;;5006232;28;20209;-80
2023/04/07 09:28:38;;;;;;;5.32;2.00;;;;;16.20;101539.00;;;;5007140;28;20663;-79
2023/04/07 09:31:05;;;;;;;5.40;1.33;;;;;16.30;101542.00;;;;5006981;28;20200;-78
2023/04/07 09:33:35;;;;;;;5.90;1.77;;;;;16.30;101537.00;;;;5002944;28;20687;-79
2023/04/07 09:36:03;;;;;;;1.13;1.02;;;;;16.30;101551.00;;;;5006178;28;20260;-80
2023/04/07 09:38:34;;;;;;;3.00;1.60;;;;;16.30;101546.00;;;;5004401;28;20208;-79
2023/04/07 09:41:09;;;;;;;3.60;1.15;;;;;16.30;101550.00;;;;5001998;28;20225;-79
2023/04/07 09:43:40;;;;;;;2.78;1.50;;;;;16.30;101551.00;;;;5009289;28;20205;-78
2023/04/07 09:46:12;;;;;;;1.50;1.00;;;;;16.40;101547.00;;;;5005881;28;20189;-79
2023/04/07 09:48:40;;;;;;;3.83;1.40;;;;;16.40;101544.00;;;;5003859;28;20200;-79
2023/04/07 09:51:09;;;;;;;3.35;1.35;;;;;16.50;101550.00;;;;5005028;28;20263;-79
2023/04/07 09:53:47;;;;;;;2.60;1.23;;;;;16.30;101540.00;;;;5005634;28;20921;-79
2023/04/07 09:56:16;;;;;;;3.67;1.30;;;;;16.50;101552.00;;;;4999482;28;20267;-79
2023/04/07 09:58:47;;;;;;;2.72;1.48;;;;;16.50;101548.00;;;;5003561;28;20685;-80
2023/04/07 10:01:16;;;;;;;3.25;1.15;;;;;16.50;101548.00;;;;5005015;28;20269;-80
2023/04/07 10:03:45;;;;;;;1.95;1.13;;;;;16.60;101551.00;;;;5006924;28;20204;-81
2023/04/07 10:06:13;;;;;;;2.90;1.35;;;;;16.70;101555.00;;;;5007335;28;20201;-82
2023/04/07 10:08:43;;;;;;;4.63;1.30;;;;;16.70;101554.00;;;;5005441;28;20224;-81
2023/04/07 10:11:10;;;;;;;3.97;0.93;;;;;16.70;101554.00;;;;5000275;28;20208;-81
2023/04/07 10:13:40;;;;;;;2.67;1.15;;;;;16.70;101564.00;;;;5006843;28;20204;-81
2023/04/07 10:16:09;;;;;;;4.80;1.27;;;;;16.70;101554.00;;;;5004296;28;20243;-81
2023/04/07 10:18:38;;;;;;;3.38;1.33;;;;;16.70;101558.00;;;;5006948;28;20224;-80
2023/04/07 10:21:08;;;;;;;5.28;2.38;;;;;16.70;101561.00;;;;4996980;28;20230;-81
2023/04/07 10:23:48;;;;;;;3.55;2.50;;;;;16.60;101557.00;;;;5008232;28;20196;-81
2023/04/07 10:26:19;;;;;;;5.90;2.47;;;;;16.70;101558.00;;;;4994716;28;20582;-81
2023/04/07 10:28:52;;;;;;;6.93;3.10;;;;;16.70;101563.00;;;;5005282;28;20659;-81
2023/04/07 10:31:24;;;;;;;4.72;2.63;;;;;16.60;101567.00;;;;5005645;28;20208;-81
2023/04/07 10:33:53;;;;;;;5.68;3.53;;;;;16.70;101572.00;;;;5008614;28;20193;-81
2023/04/07 10:36:21;;;;;;;4.10;2.72;;;;;16.70;101580.00;;;;5007098;28;20197;-81
2023/04/07 10:39:23;;;;;;;5.30;3.10;;;;;16.60;101577.00;;;;5006063;28;20579;-82
2023/04/07 10:41:52;;;;;;;5.28;2.70;;;;;16.80;101579.00;;;;5007331;28;20220;-82
2023/04/07 10:44:49;;;;;;;7.68;3.00;;;;;16.70;101580.00;;;;5005708;28;20209;-81
2023/04/07 10:47:18;;;;;;;6.85;2.45;;;;;16.80;101585.00;;;;5001413;28;20205;-80
2023/04/07 10:50:18;;;;;;;3.80;2.42;;;;;16.70;101585.00;;;;5004871;28;20197;-81
2023/04/07 10:52:46;;;;;;;5.90;2.63;;;;;16.80;101581.00;;;;5006413;28;21022;-81
2023/04/07 10:55:32;;;;;;;8.73;2.45;;;;;16.80;101586.00;;;;5003097;28;20208;-81
2023/04/07 10:58:20;;;;;;;4.45;2.15;;;;;16.80;101596.00;;;;5002055;28;20228;-81
2023/04/07 11:01:17;;;;;;;3.83;2.60;;;;;16.80;101592.00;;;;5002259;28;20227;-82
2023/04/07 11:03:58;;;;;;;5.18;2.53;;;;;16.90;101590.00;;;;5005124;28;20625;-82
2023/04/07 11:06:26;;;;;;;4.20;2.83;;;;;17.00;101591.00;;;;5005765;28;20604;-81
2023/04/07 11:08:54;;;;;;;4.18;3.28;;;;;17.10;101588.00;;;;5002914;28;20252;-81
2023/04/07 11:11:37;;;;;;;8.65;3.60;;;;;17.00;101583.00;;;;5004013;28;20200;-81
2023/04/07 11:14:04;;;;;;;5.07;3.15;;;;;17.20;101593.00;;;;5003042;28;20595;-81
2023/04/07 11:16:41;;;;;;;5.07;3.25;;;;;17.10;101602.00;;;;5005032;28;20709;-80
2023/04/07 11:19:10;;;;;;;8.73;3.63;;;;;17.20;101599.00;;;;5003249;28;20259;-80
2023/04/07 11:21:37;;;;;;;6.65;3.03;;;;;17.20;101605.00;;;;5001610;28;20304;-81
2023/04/07 11:24:05;;;;;;;6.63;3.05;;;;;17.20;101600.00;;;;4993576;28;20205;-81
2023/04/07 11:26:38;;;;;;;6.60;3.70;;;;;17.10;101601.00;;;;5006692;28;20215;-81
2023/04/07 11:29:06;;;;;;;8.18;3.50;;;;;17.20;101595.00;;;;5002687;28;20196;-80
2023/04/07 11:31:36;;;;;;;6.85;2.90;;;;;17.20;101597.00;;;;5001704;28;20204;-80
2023/04/07 11:34:05;;;;;;;3.42;2.67;;;;;17.30;101598.00;;;;5004428;28;20196;-80
2023/04/07 11:36:35;;;;;;;5.40;2.33;;;;;17.30;101604.00;;;;5004837;28;20208;-81
2023/04/07 11:39:03;;;;;;;3.38;2.47;;;;;17.40;101619.00;;;;5003134;28;20208;-81
2023/04/07 11:41:32;;;;;;;6.15;2.13;;;;;17.40;101608.00;;;;5005421;28;20239;-81
2023/04/07 11:44:07;;;;;;;5.95;1.98;;;;;17.40;101617.00;;;;5005606;28;20209;-80
2023/04/07 11:46:35;;;;;;;4.03;2.17;;;;;17.50;101612.00;;;;5005161;28;20663;-81
2023/04/07 11:49:10;;;;;;;4.93;2.47;;;;;17.40;101619.00;;;;5006461;28;20204;-81
2023/04/07 11:51:39;;;;;;;4.82;2.47;;;;;17.50;101619.00;;;;5002432;28;20294;-80
2023/04/07 11:54:07;;;;;;;8.55;3.03;;;;;17.50;101619.00;;;;5006495;28;20724;-81
2023/04/07 11:56:45;;;;;;;5.53;2.80;;;;;17.40;101619.00;;;;5008864;28;20188;-81
2023/04/07 11:59:23;;;;;;;5.95;2.90;;;;;17.50;101618.00;;;;5005796;28;20197;-81
2023/04/07 12:01:51;;;;;;;8.20;2.75;;;;;17.60;101623.00;;;;5002073;28;20216;-80
2023/04/07 12:04:19;;;;;;;5.53;3.85;;;;;17.70;101624.00;;;;5003017;28;20354;-80
2023/04/07 12:06:49;;;;;;;5.53;3.20;;;;;17.70;101622.00;;;;5004745;28;20197;-80
2023/04/07 12:09:28;;;;;;;5.50;3.65;;;;;17.60;101630.00;;;;5007825;28;20225;-80
2023/04/07 12:11:56;;;;;;;6.18;3.58;;;;;17.80;101632.00;;;;5006686;28;20285;-80
2023/04/07 12:14:24;;;;;;;5.00;3.53;;;;;17.80;101630.00;;;;5008436;28;20934;-80
2023/04/07 12:16:54;;;;;;;6.05;3.70;;;;;17.80;101632.00;;;;5008805;28;20197;-80
2023/04/07 12:19:22;;;;;;;3.75;3.33;;;;;17.80;101632.00;;;;5008031;28;21780;-81